sensor_id;sensor_type;location;lat;lon;timestamp;temperature;humidity
39997;DHT22;25688;52.338;21.072;2024-03-06T00:02:10;5.70;99.90
39997;DHT22;25688;52.338;21.072;2024-03-06T00:04:36;5.70;99.90
39997;DHT22;25688;52.338;21.072;2024-03-06T00:07:02;5.70;99.90
39997;DHT22;25688;52.338;21.072;2024-03-06T00:09:28;5.80;99.90
39997;DHT22;25688;52.338;21.072;2024-03-06T00:12:06;5.80;99.90
39997;DHT22;25688;52.338;21.072;2024-03-06T00:14:32;5.80;99.90
39997;DHT22;25688;52.338;21.072;2024-03-06T00:16:58;5.80;99.90
39997;DHT22;25688;52.338;21.072;2024-03-06T00:19:33;5.90;99.90
39997;DHT22;25688;52.338;21.072;2024-03-06T00:22:00;5.90;99.90
39997;DHT22;25688;52.338;21.072;2024-03-06T00:24:26;5.90;99.90
39997;DHT22;25688;52.338;21.072;2024-03-06T00:26:52;5.90;99.90
39997;DHT22;25688;52.338;21.072;2024-03-06T00:29:19;5.90;99.90
39997;DHT22;25688;52.338;21.072;2024-03-06T00:31:45;5.90;99.90
39997;DHT22;25688;52.338;21.072;2024-03-06T00:34:14;5.90;99.90
39997;DHT22;25688;52.338;21.072;2024-03-06T00:36:41;5.90;99.90
39997;DHT22;25688;52.338;21.072;2024-03-06T00:39:07;5.90;99.90
39997;DHT22;25688;52.338;21.072;2024-03-06T00:41:35;5.90;99.90
39997;DHT22;25688;52.338;21.072;2024-03-06T00:44:01;5.90;99.90
39997;DHT22;25688;52.338;21.072;2024-03-06T00:46:27;5.90;99.90
39997;DHT22;25688;52.338;21.072;2024-03-06T00:48:53;5.90;99.90
39997;DHT22;25688;52.338;21.072;2024-03-06T00:51:19;5.90;99.90
39997;DHT22;25688;52.338;21.072;2024-03-06T00:53:45;5.90;99.90
39997;DHT22;25688;52.338;21.072;2024-03-06T00:56:11;6.00;99.90
39997;DHT22;25688;52.338;21.072;2024-03-06T00:58:42;6.00;99.90
39997;DHT22;25688;52.338;21.072;2024-03-06T01:01:09;6.00;99.90
39997;DHT22;25688;52.338;21.072;2024-03-06T01:03:38;6.00;99.90
39997;DHT22;25688;52.338;21.072;2024-03-06T01:06:04;6.00;99.90
39997;DHT22;25688;52.338;21.072;2024-03-06T01:08:30;6.00;99.90
39997;DHT22;25688;52.338;21.072;2024-03-06T01:10:57;6.10;99.90
39997;DHT22;25688;52.338;21.072;2024-03-06T01:13:23;6.10;99.90
39997;DHT22;25688;52.338;21.072;2024-03-06T01:15:49;6.10;99.90
39997;DHT22;25688;52.338;21.072;2024-03-06T01:18:15;6.10;99.90
39997;DHT22;25688;52.338;21.072;2024-03-06T01:20:41;6.10;99.90
39997;DHT22;25688;52.338;21.072;2024-03-06T01:23:06;6.10;99.90
39997;DHT22;25688;52.338;21.072;2024-03-06T01:25:32;6.10;99.90
39997;DHT22;25688;52.338;21.072;2024-03-06T01:27:58;6.10;99.90
39997;DHT22;25688;52.338;21.072;2024-03-06T01:30:24;6.10;99.90
39997;DHT22;25688;52.338;21.072;2024-03-06T01:32:50;6.10;99.90
39997;DHT22;25688;52.338;21.072;2024-03-06T01:35:19;6.10;99.90
39997;DHT22;25688;52.338;21.072;2024-03-06T01:37:45;6.10;99.90
39997;DHT22;25688;52.338;21.072;2024-03-06T01:40:11;6.10;99.90
39997;DHT22;25688;52.338;21.072;2024-03-06T01:42:38;6.10;99.90
39997;DHT22;25688;52.338;21.072;2024-03-06T01:45:04;6.10;99.90
39997;DHT22;25688;52.338;21.072;2024-03-06T01:47:30;6.10;99.90
39997;DHT22;25688;52.338;21.072;2024-03-06T01:49:56;6.10;99.90
39997;DHT22;25688;52.338;21.072;2024-03-06T01:52:22;6.10;99.90
39997;DHT22;25688;52.338;21.072;2024-03-06T01:54:49;6.10;99.90
39997;DHT22;25688;52.338;21.072;2024-03-06T01:57:17;6.10;99.90
39997;DHT22;25688;52.338;21.072;2024-03-06T01:59:43;6.10;99.90
39997;DHT22;25688;52.338;21.072;2024-03-06T02:02:09;6.10;99.90
39997;DHT22;25688;52.338;21.072;2024-03-06T02:04:40;6.10;99.90
39997;DHT22;25688;52.338;21.072;2024-03-06T02:07:09;6.10;99.90
39997;DHT22;25688;52.338;21.072;2024-03-06T02:09:38;6.10;99.90
39997;DHT22;25688;52.338;21.072;2024-03-06T02:12:06;6.10;99.90
39997;DHT22;25688;52.338;21.072;2024-03-06T02:14:35;6.10;99.90
39997;DHT22;25688;52.338;21.072;2024-03-06T02:17:00;6.10;99.90
39997;DHT22;25688;52.338;21.072;2024-03-06T02:19:43;6.10;99.90
39997;DHT22;25688;52.338;21.072;2024-03-06T02:22:15;6.10;99.90
39997;DHT22;25688;52.338;21.072;2024-03-06T02:24:48;6.10;99.90
39997;DHT22;25688;52.338;21.072;2024-03-06T02:27:20;6.00;99.90
39997;DHT22;25688;52.338;21.072;2024-03-06T02:29:46;6.00;99.90
39997;DHT22;25688;52.338;21.072;2024-03-06T02:32:15;6.00;99.90
39997;DHT22;25688;52.338;21.072;2024-03-06T02:34:43;6.00;99.90
39997;DHT22;25688;52.338;21.072;2024-03-06T02:37:08;6.00;99.90
39997;DHT22;25688;52.338;21.072;2024-03-06T02:43:12;6.00;99.90
39997;DHT22;25688;52.338;21.072;2024-03-06T02:45:47;5.90;99.90
39997;DHT22;25688;52.338;21.072;2024-03-06T02:48:13;6.00;99.90
39997;DHT22;25688;52.338;21.072;2024-03-06T02:50:39;6.00;99.90
39997;DHT22;25688;52.338;21.072;2024-03-06T02:53:04;6.00;99.90
39997;DHT22;25688;52.338;21.072;2024-03-06T02:55:30;5.90;99.90
39997;DHT22;25688;52.338;21.072;2024-03-06T02:57:56;6.00;99.90
39997;DHT22;25688;52.338;21.072;2024-03-06T03:00:22;5.90;99.90
39997;DHT22;25688;52.338;21.072;2024-03-06T03:02:48;5.90;99.90
39997;DHT22;25688;52.338;21.072;2024-03-06T03:05:13;5.90;99.90
39997;DHT22;25688;52.338;21.072;2024-03-06T03:07:39;5.90;99.90
39997;DHT22;25688;52.338;21.072;2024-03-06T03:10:05;5.90;99.90
39997;DHT22;25688;52.338;21.072;2024-03-06T03:12:31;5.90;99.90
39997;DHT22;25688;52.338;21.072;2024-03-06T03:14:57;5.90;99.90
39997;DHT22;25688;52.338;21.072;2024-03-06T03:17:23;5.90;99.90
39997;DHT22;25688;52.338;21.072;2024-03-06T03:19:49;5.80;99.90
39997;DHT22;25688;52.338;21.072;2024-03-06T03:22:14;5.90;99.90
39997;DHT22;25688;52.338;21.072;2024-03-06T03:24:43;5.80;99.90
39997;DHT22;25688;52.338;21.072;2024-03-06T03:27:09;5.80;99.90
39997;DHT22;25688;52.338;21.072;2024-03-06T03:29:35;5.80;99.90
39997;DHT22;25688;52.338;21.072;2024-03-06T03:32:01;5.80;99.90
39997;DHT22;25688;52.338;21.072;2024-03-06T03:34:27;5.70;99.90
39997;DHT22;25688;52.338;21.072;2024-03-06T03:36:52;5.70;99.90
39997;DHT22;25688;52.338;21.072;2024-03-06T03:39:18;5.70;99.90
39997;DHT22;25688;52.338;21.072;2024-03-06T03:41:47;5.70;99.90
39997;DHT22;25688;52.338;21.072;2024-03-06T03:44:14;5.70;99.90
39997;DHT22;25688;52.338;21.072;2024-03-06T03:46:41;5.70;99.90
39997;DHT22;25688;52.338;21.072;2024-03-06T03:49:07;5.70;99.90
39997;DHT22;25688;52.338;21.072;2024-03-06T03:51:34;5.60;99.90
39997;DHT22;25688;52.338;21.072;2024-03-06T03:54:00;5.60;99.90
39997;DHT22;25688;52.338;21.072;2024-03-06T03:56:26;5.60;99.90
39997;DHT22;25688;52.338;21.072;2024-03-06T03:58:52;5.60;99.90
39997;DHT22;25688;52.338;21.072;2024-03-06T04:01:18;5.60;99.90
39997;DHT22;25688;52.338;21.072;2024-03-06T04:03:44;5.60;99.90
39997;DHT22;25688;52.338;21.072;2024-03-06T04:06:10;5.60;99.90
39997;DHT22;25688;52.338;21.072;2024-03-06T04:08:36;5.50;99.90
39997;DHT22;25688;52.338;21.072;2024-03-06T04:11:05;5.50;99.90
39997;DHT22;25688;52.338;21.072;2024-03-06T04:13:36;5.50;99.90
39997;DHT22;25688;52.338;21.072;2024-03-06T04:16:02;5.50;99.90
39997;DHT22;25688;52.338;21.072;2024-03-06T04:18:29;5.50;99.90
39997;DHT22;25688;52.338;21.072;2024-03-06T04:20:55;5.50;99.90
39997;DHT22;25688;52.338;21.072;2024-03-06T04:23:20;5.50;99.90
39997;DHT22;25688;52.338;21.072;2024-03-06T04:25:46;5.40;99.90
39997;DHT22;25688;52.338;21.072;2024-03-06T04:28:12;5.50;99.90
39997;DHT22;25688;52.338;21.072;2024-03-06T04:30:39;5.40;99.90
39997;DHT22;25688;52.338;21.072;2024-03-06T04:33:05;5.40;99.90
39997;DHT22;25688;52.338;21.072;2024-03-06T04:35:31;5.40;99.90
39997;DHT22;25688;52.338;21.072;2024-03-06T04:37:57;5.40;99.90
39997;DHT22;25688;52.338;21.072;2024-03-06T04:40:23;5.40;99.90
39997;DHT22;25688;52.338;21.072;2024-03-06T04:42:50;5.40;99.90
39997;DHT22;25688;52.338;21.072;2024-03-06T04:45:16;5.40;99.90
39997;DHT22;25688;52.338;21.072;2024-03-06T04:47:43;5.40;99.90
39997;DHT22;25688;52.338;21.072;2024-03-06T04:50:12;5.40;99.90
39997;DHT22;25688;52.338;21.072;2024-03-06T04:52:40;5.40;99.90
39997;DHT22;25688;52.338;21.072;2024-03-06T04:55:07;5.30;99.90
39997;DHT22;25688;52.338;21.072;2024-03-06T04:57:34;5.30;99.90
39997;DHT22;25688;52.338;21.072;2024-03-06T05:00:00;5.40;99.90
39997;DHT22;25688;52.338;21.072;2024-03-06T05:02:30;5.40;99.90
39997;DHT22;25688;52.338;21.072;2024-03-06T05:04:55;5.40;99.90
39997;DHT22;25688;52.338;21.072;2024-03-06T05:07:21;5.40;99.90
39997;DHT22;25688;52.338;21.072;2024-03-06T05:09:47;5.30;99.90
39997;DHT22;25688;52.338;21.072;2024-03-06T05:12:13;5.30;99.90
39997;DHT22;25688;52.338;21.072;2024-03-06T05:14:39;5.30;99.90
39997;DHT22;25688;52.338;21.072;2024-03-06T05:17:04;5.30;99.90
39997;DHT22;25688;52.338;21.072;2024-03-06T05:19:34;5.30;99.90
39997;DHT22;25688;52.338;21.072;2024-03-06T05:22:00;5.30;99.90
39997;DHT22;25688;52.338;21.072;2024-03-06T05:24:26;5.30;99.90
39997;DHT22;25688;52.338;21.072;2024-03-06T05:26:52;5.30;99.90
39997;DHT22;25688;52.338;21.072;2024-03-06T05:29:17;5.30;99.90
39997;DHT22;25688;52.338;21.072;2024-03-06T05:31:43;5.20;99.90
39997;DHT22;25688;52.338;21.072;2024-03-06T05:34:09;5.30;99.90
39997;DHT22;25688;52.338;21.072;2024-03-06T05:36:34;5.20;99.90
39997;DHT22;25688;52.338;21.072;2024-03-06T05:39:01;5.20;99.90
39997;DHT22;25688;52.338;21.072;2024-03-06T05:41:28;5.20;99.90
39997;DHT22;25688;52.338;21.072;2024-03-06T05:43:53;5.20;99.90
39997;DHT22;25688;52.338;21.072;2024-03-06T05:46:19;5.20;99.90
39997;DHT22;25688;52.338;21.072;2024-03-06T05:48:45;5.20;99.90
39997;DHT22;25688;52.338;21.072;2024-03-06T05:51:10;5.30;99.90
39997;DHT22;25688;52.338;21.072;2024-03-06T05:53:39;5.20;99.90
39997;DHT22;25688;52.338;21.072;2024-03-06T05:56:08;5.20;99.90
39997;DHT22;25688;52.338;21.072;2024-03-06T05:58:34;5.20;99.90
39997;DHT22;25688;52.338;21.072;2024-03-06T06:01:00;5.20;99.90
39997;DHT22;25688;52.338;21.072;2024-03-06T06:03:28;5.20;99.90
39997;DHT22;25688;52.338;21.072;2024-03-06T06:05:54;5.20;99.90
39997;DHT22;25688;52.338;21.072;2024-03-06T06:08:20;5.20;99.90
39997;DHT22;25688;52.338;21.072;2024-03-06T06:10:48;5.10;99.90
39997;DHT22;25688;52.338;21.072;2024-03-06T06:13:17;5.10;99.90
39997;DHT22;25688;52.338;21.072;2024-03-06T06:15:43;5.10;99.90
39997;DHT22;25688;52.338;21.072;2024-03-06T06:18:09;5.10;99.90
39997;DHT22;25688;52.338;21.072;2024-03-06T06:20:35;5.10;99.90
39997;DHT22;25688;52.338;21.072;2024-03-06T06:23:01;5.10;99.90
39997;DHT22;25688;52.338;21.072;2024-03-06T06:25:33;5.10;99.90
39997;DHT22;25688;52.338;21.072;2024-03-06T06:27:59;5.10;99.90
39997;DHT22;25688;52.338;21.072;2024-03-06T06:30:24;5.00;99.90
39997;DHT22;25688;52.338;21.072;2024-03-06T06:32:50;5.00;99.90
39997;DHT22;25688;52.338;21.072;2024-03-06T06:35:16;5.00;99.90
39997;DHT22;25688;52.338;21.072;2024-03-06T06:37:42;5.00;99.90
39997;DHT22;25688;52.338;21.072;2024-03-06T06:40:08;5.00;99.90
39997;DHT22;25688;52.338;21.072;2024-03-06T06:42:35;5.10;99.90
39997;DHT22;25688;52.338;21.072;2024-03-06T06:45:04;5.10;99.90
39997;DHT22;25688;52.338;21.072;2024-03-06T06:47:31;5.10;99.90
39997;DHT22;25688;52.338;21.072;2024-03-06T06:50:00;5.10;99.90
39997;DHT22;25688;52.338;21.072;2024-03-06T06:52:30;5.20;99.90
39997;DHT22;25688;52.338;21.072;2024-03-06T06:54:59;5.10;99.90
39997;DHT22;25688;52.338;21.072;2024-03-06T06:57:25;5.10;99.90
39997;DHT22;25688;52.338;21.072;2024-03-06T06:59:51;5.10;99.90
39997;DHT22;25688;52.338;21.072;2024-03-06T07:02:17;5.20;99.90
39997;DHT22;25688;52.338;21.072;2024-03-06T07:04:44;5.20;99.90
39997;DHT22;25688;52.338;21.072;2024-03-06T07:07:10;5.20;99.90
39997;DHT22;25688;52.338;21.072;2024-03-06T07:09:36;5.20;99.90
39997;DHT22;25688;52.338;21.072;2024-03-06T07:12:01;5.20;99.90
39997;DHT22;25688;52.338;21.072;2024-03-06T07:17:06;5.20;99.90
39997;DHT22;25688;52.338;21.072;2024-03-06T07:19:32;5.30;99.90
39997;DHT22;25688;52.338;21.072;2024-03-06T07:22:04;5.30;99.90
39997;DHT22;25688;52.338;21.072;2024-03-06T07:24:30;5.30;99.90
39997;DHT22;25688;52.338;21.072;2024-03-06T07:26:55;5.30;99.90
39997;DHT22;25688;52.338;21.072;2024-03-06T07:29:21;5.40;99.90
39997;DHT22;25688;52.338;21.072;2024-03-06T07:31:47;5.40;99.90
39997;DHT22;25688;52.338;21.072;2024-03-06T07:34:13;5.50;99.90
39997;DHT22;25688;52.338;21.072;2024-03-06T07:36:41;5.50;99.90
39997;DHT22;25688;52.338;21.072;2024-03-06T07:39:07;5.50;99.90
39997;DHT22;25688;52.338;21.072;2024-03-06T07:41:33;5.50;99.90
39997;DHT22;25688;52.338;21.072;2024-03-06T07:43:59;5.40;99.90
39997;DHT22;25688;52.338;21.072;2024-03-06T07:46:28;5.40;99.90
39997;DHT22;25688;52.338;21.072;2024-03-06T07:48:54;5.40;99.90
39997;DHT22;25688;52.338;21.072;2024-03-06T07:51:20;5.40;99.90
39997;DHT22;25688;52.338;21.072;2024-03-06T07:53:46;5.40;99.90
39997;DHT22;25688;52.338;21.072;2024-03-06T07:56:12;5.50;99.90
39997;DHT22;25688;52.338;21.072;2024-03-06T07:58:38;5.50;99.90
39997;DHT22;25688;52.338;21.072;2024-03-06T08:01:05;5.50;99.90
39997;DHT22;25688;52.338;21.072;2024-03-06T08:03:33;5.50;99.90
39997;DHT22;25688;52.338;21.072;2024-03-06T08:06:09;5.50;99.90
39997;DHT22;25688;52.338;21.072;2024-03-06T08:08:44;5.50;99.90
39997;DHT22;25688;52.338;21.072;2024-03-06T08:11:13;5.50;99.90
39997;DHT22;25688;52.338;21.072;2024-03-06T08:13:39;5.50;99.90
39997;DHT22;25688;52.338;21.072;2024-03-06T08:16:05;5.60;99.90
39997;DHT22;25688;52.338;21.072;2024-03-06T08:18:33;5.60;99.90
39997;DHT22;25688;52.338;21.072;2024-03-06T08:20:59;5.70;99.90
39997;DHT22;25688;52.338;21.072;2024-03-06T08:23:25;5.70;99.90
39997;DHT22;25688;52.338;21.072;2024-03-06T08:25:54;5.70;99.90
39997;DHT22;25688;52.338;21.072;2024-03-06T08:28:26;5.80;99.90
39997;DHT22;25688;52.338;21.072;2024-03-06T08:30:52;5.70;99.90
39997;DHT22;25688;52.338;21.072;2024-03-06T08:33:18;5.70;99.90
39997;DHT22;25688;52.338;21.072;2024-03-06T08:35:46;5.70;99.90
39997;DHT22;25688;52.338;21.072;2024-03-06T08:38:15;5.60;99.90
39997;DHT22;25688;52.338;21.072;2024-03-06T08:40:42;5.60;99.90
39997;DHT22;25688;52.338;21.072;2024-03-06T08:43:12;5.60;99.90
39997;DHT22;25688;52.338;21.072;2024-03-06T08:45:38;5.70;99.90
39997;DHT22;25688;52.338;21.072;2024-03-06T08:48:04;5.70;99.90
39997;DHT22;25688;52.338;21.072;2024-03-06T08:50:31;5.60;99.90
39997;DHT22;25688;52.338;21.072;2024-03-06T08:52:57;5.70;99.90
39997;DHT22;25688;52.338;21.072;2024-03-06T08:55:23;5.70;99.90
39997;DHT22;25688;52.338;21.072;2024-03-06T08:57:57;5.80;99.90
39997;DHT22;25688;52.338;21.072;2024-03-06T09:00:31;5.90;99.90
39997;DHT22;25688;52.338;21.072;2024-03-06T09:03:13;5.90;99.90
39997;DHT22;25688;52.338;21.072;2024-03-06T09:08:46;5.80;99.90
39997;DHT22;25688;52.338;21.072;2024-03-06T09:11:14;5.80;99.90
39997;DHT22;25688;52.338;21.072;2024-03-06T09:13:39;5.80;99.90
39997;DHT22;25688;52.338;21.072;2024-03-06T09:16:11;5.90;99.90
39997;DHT22;25688;52.338;21.072;2024-03-06T09:18:37;5.90;99.90
39997;DHT22;25688;52.338;21.072;2024-03-06T09:21:03;5.90;99.90
39997;DHT22;25688;52.338;21.072;2024-03-06T09:23:31;5.90;99.90
39997;DHT22;25688;52.338;21.072;2024-03-06T09:25:58;6.00;99.90
39997;DHT22;25688;52.338;21.072;2024-03-06T09:28:23;6.00;99.90
39997;DHT22;25688;52.338;21.072;2024-03-06T09:37:50;6.00;99.90
39997;DHT22;25688;52.338;21.072;2024-03-06T09:40:22;6.00;99.90
39997;DHT22;25688;52.338;21.072;2024-03-06T09:42:58;5.90;99.90
39997;DHT22;25688;52.338;21.072;2024-03-06T09:56:57;5.90;99.90
39997;DHT22;25688;52.338;21.072;2024-03-06T09:59:24;6.00;99.90
39997;DHT22;25688;52.338;21.072;2024-03-06T10:02:17;5.90;99.90
39997;DHT22;25688;52.338;21.072;2024-03-06T10:07:32;5.90;99.90
39997;DHT22;25688;52.338;21.072;2024-03-06T10:10:00;5.90;99.90
39997;DHT22;25688;52.338;21.072;2024-03-06T10:14:56;6.10;99.90
39997;DHT22;25688;52.338;21.072;2024-03-06T10:17:40;6.10;99.90
39997;DHT22;25688;52.338;21.072;2024-03-06T10:20:22;6.20;99.90
39997;DHT22;25688;52.338;21.072;2024-03-06T10:22:53;6.30;99.90
39997;DHT22;25688;52.338;21.072;2024-03-06T10:25:22;6.40;99.90
39997;DHT22;25688;52.338;21.072;2024-03-06T10:28:05;6.50;99.90
39997;DHT22;25688;52.338;21.072;2024-03-06T10:30:35;6.50;99.90
39997;DHT22;25688;52.338;21.072;2024-03-06T10:33:13;6.50;99.90
39997;DHT22;25688;52.338;21.072;2024-03-06T10:35:57;6.40;99.90
39997;DHT22;25688;52.338;21.072;2024-03-06T10:38:39;6.40;99.90
39997;DHT22;25688;52.338;21.072;2024-03-06T10:41:09;6.30;99.90
39997;DHT22;25688;52.338;21.072;2024-03-06T10:43:40;6.30;99.90
39997;DHT22;25688;52.338;21.072;2024-03-06T10:46:10;6.20;99.90
39997;DHT22;25688;52.338;21.072;2024-03-06T10:48:44;6.20;99.90
39997;DHT22;25688;52.338;21.072;2024-03-06T10:51:18;6.20;99.90
39997;DHT22;25688;52.338;21.072;2024-03-06T10:53:47;6.30;99.90
39997;DHT22;25688;52.338;21.072;2024-03-06T10:56:15;6.50;99.90
39997;DHT22;25688;52.338;21.072;2024-03-06T10:58:42;6.60;99.90
39997;DHT22;25688;52.338;21.072;2024-03-06T11:01:09;6.60;99.90
39997;DHT22;25688;52.338;21.072;2024-03-06T11:06:33;6.70;99.90
39997;DHT22;25688;52.338;21.072;2024-03-06T11:12:42;7.00;99.90
39997;DHT22;25688;52.338;21.072;2024-03-06T11:15:15;7.20;99.90
39997;DHT22;25688;52.338;21.072;2024-03-06T11:17:44;7.40;99.90
39997;DHT22;25688;52.338;21.072;2024-03-06T11:20:34;7.50;99.90
39997;DHT22;25688;52.338;21.072;2024-03-06T11:23:08;7.60;99.90
39997;DHT22;25688;52.338;21.072;2024-03-06T11:28:38;7.90;99.90
39997;DHT22;25688;52.338;21.072;2024-03-06T11:31:25;8.00;99.90
39997;DHT22;25688;52.338;21.072;2024-03-06T11:33:53;7.90;99.90
39997;DHT22;25688;52.338;21.072;2024-03-06T11:36:35;7.70;99.90
39997;DHT22;25688;52.338;21.072;2024-03-06T11:39:04;7.60;99.90
39997;DHT22;25688;52.338;21.072;2024-03-06T11:41:50;7.30;99.90
39997;DHT22;25688;52.338;21.072;2024-03-06T11:44:17;7.10;99.90
39997;DHT22;25688;52.338;21.072;2024-03-06T11:46:47;7.30;99.90
39997;DHT22;25688;52.338;21.072;2024-03-06T11:49:23;7.70;99.90
39997;DHT22;25688;52.338;21.072;2024-03-06T11:51:51;8.00;99.90
39997;DHT22;25688;52.338;21.072;2024-03-06T11:54:17;8.30;99.90
39997;DHT22;25688;52.338;21.072;2024-03-06T11:56:49;8.50;99.90
39997;DHT22;25688;52.338;21.072;2024-03-06T11:59:35;8.60;99.90
39997;DHT22;25688;52.338;21.072;2024-03-06T12:02:10;8.70;99.90
39997;DHT22;25688;52.338;21.072;2024-03-06T12:04:46;8.10;99.90
39997;DHT22;25688;52.338;21.072;2024-03-06T12:07:53;7.70;99.90
39997;DHT22;25688;52.338;21.072;2024-03-06T12:10:22;7.40;99.90
39997;DHT22;25688;52.338;21.072;2024-03-06T12:13:08;7.30;99.90
39997;DHT22;25688;52.338;21.072;2024-03-06T12:15:35;7.20;99.90
39997;DHT22;25688;52.338;21.072;2024-03-06T12:18:01;7.20;99.90
39997;DHT22;25688;52.338;21.072;2024-03-06T12:20:27;7.20;99.90
39997;DHT22;25688;52.338;21.072;2024-03-06T12:22:54;7.00;99.90
39997;DHT22;25688;52.338;21.072;2024-03-06T12:25:41;7.00;99.90
39997;DHT22;25688;52.338;21.072;2024-03-06T12:28:07;6.90;99.90
39997;DHT22;25688;52.338;21.072;2024-03-06T12:30:51;7.00;99.90
39997;DHT22;25688;52.338;21.072;2024-03-06T12:33:17;7.10;99.90
39997;DHT22;25688;52.338;21.072;2024-03-06T12:35:43;7.30;99.90
39997;DHT22;25688;52.338;21.072;2024-03-06T12:38:13;7.40;99.90
39997;DHT22;25688;52.338;21.072;2024-03-06T12:40:40;7.60;99.90
39997;DHT22;25688;52.338;21.072;2024-03-06T12:43:06;7.60;99.90
39997;DHT22;25688;52.338;21.072;2024-03-06T12:45:32;7.40;99.90
39997;DHT22;25688;52.338;21.072;2024-03-06T12:47:58;7.30;99.90
39997;DHT22;25688;52.338;21.072;2024-03-06T12:50:25;7.30;99.90
39997;DHT22;25688;52.338;21.072;2024-03-06T12:52:51;7.20;99.90
39997;DHT22;25688;52.338;21.072;2024-03-06T12:55:27;7.00;99.90
39997;DHT22;25688;52.338;21.072;2024-03-06T12:57:59;6.90;99.90
39997;DHT22;25688;52.338;21.072;2024-03-06T13:00:24;6.80;99.90
39997;DHT22;25688;52.338;21.072;2024-03-06T13:02:50;6.80;99.90
39997;DHT22;25688;52.338;21.072;2024-03-06T13:05:16;6.90;99.90
39997;DHT22;25688;52.338;21.072;2024-03-06T13:08:04;7.00;99.90
39997;DHT22;25688;52.338;21.072;2024-03-06T13:10:30;7.00;99.90
39997;DHT22;25688;52.338;21.072;2024-03-06T13:12:59;7.10;99.90
39997;DHT22;25688;52.338;21.072;2024-03-06T13:15:24;7.00;99.90
39997;DHT22;25688;52.338;21.072;2024-03-06T13:17:50;7.00;99.90
39997;DHT22;25688;52.338;21.072;2024-03-06T13:20:16;7.00;99.90
39997;DHT22;25688;52.338;21.072;2024-03-06T13:22:53;7.00;99.90
39997;DHT22;25688;52.338;21.072;2024-03-06T13:25:18;7.00;99.90
39997;DHT22;25688;52.338;21.072;2024-03-06T13:27:44;7.00;99.90
39997;DHT22;25688;52.338;21.072;2024-03-06T13:30:10;7.00;99.90
39997;DHT22;25688;52.338;21.072;2024-03-06T13:32:38;7.10;99.90
39997;DHT22;25688;52.338;21.072;2024-03-06T13:35:04;7.00;99.90
39997;DHT22;25688;52.338;21.072;2024-03-06T13:37:36;7.00;99.90
39997;DHT22;25688;52.338;21.072;2024-03-06T13:40:09;6.90;99.90
39997;DHT22;25688;52.338;21.072;2024-03-06T13:42:36;6.70;99.90
39997;DHT22;25688;52.338;21.072;2024-03-06T13:45:17;6.60;99.90
39997;DHT22;25688;52.338;21.072;2024-03-06T13:47:44;6.60;99.90
39997;DHT22;25688;52.338;21.072;2024-03-06T13:50:11;6.70;99.90
39997;DHT22;25688;52.338;21.072;2024-03-06T13:52:46;6.70;99.90
39997;DHT22;25688;52.338;21.072;2024-03-06T13:55:24;6.70;99.90
39997;DHT22;25688;52.338;21.072;2024-03-06T14:03:32;6.80;99.90
39997;DHT22;25688;52.338;21.072;2024-03-06T14:06:09;6.70;99.90
39997;DHT22;25688;52.338;21.072;2024-03-06T14:08:35;6.70;99.90
39997;DHT22;25688;52.338;21.072;2024-03-06T14:11:03;6.70;99.90
39997;DHT22;25688;52.338;21.072;2024-03-06T14:13:32;6.70;99.90
39997;DHT22;25688;52.338;21.072;2024-03-06T14:15:58;6.60;99.90
39997;DHT22;25688;52.338;21.072;2024-03-06T14:18:25;6.50;99.90
39997;DHT22;25688;52.338;21.072;2024-03-06T14:20:51;6.40;99.90
39997;DHT22;25688;52.338;21.072;2024-03-06T14:23:26;6.40;99.90
39997;DHT22;25688;52.338;21.072;2024-03-06T14:26:00;6.30;99.90
39997;DHT22;25688;52.338;21.072;2024-03-06T14:31:51;6.20;99.90
39997;DHT22;25688;52.338;21.072;2024-03-06T14:34:17;6.30;99.90
39997;DHT22;25688;52.338;21.072;2024-03-06T14:36:43;6.20;99.90
39997;DHT22;25688;52.338;21.072;2024-03-06T14:47:10;6.30;99.90
39997;DHT22;25688;52.338;21.072;2024-03-06T14:49:58;6.30;99.90
39997;DHT22;25688;52.338;21.072;2024-03-06T14:52:47;6.30;99.90
39997;DHT22;25688;52.338;21.072;2024-03-06T15:06:01;6.10;99.90
39997;DHT22;25688;52.338;21.072;2024-03-06T15:11:42;6.10;99.90
39997;DHT22;25688;52.338;21.072;2024-03-06T15:20:16;6.00;99.90
39997;DHT22;25688;52.338;21.072;2024-03-06T15:22:45;5.90;99.90
39997;DHT22;25688;52.338;21.072;2024-03-06T15:25:12;5.90;99.90
39997;DHT22;25688;52.338;21.072;2024-03-06T15:27:39;5.90;99.90
39997;DHT22;25688;52.338;21.072;2024-03-06T15:30:09;5.90;99.90
39997;DHT22;25688;52.338;21.072;2024-03-06T15:32:35;5.80;99.90
39997;DHT22;25688;52.338;21.072;2024-03-06T15:35:04;5.90;99.90
39997;DHT22;25688;52.338;21.072;2024-03-06T15:37:30;5.90;99.90
39997;DHT22;25688;52.338;21.072;2024-03-06T15:39:57;5.80;99.90
39997;DHT22;25688;52.338;21.072;2024-03-06T15:42:25;5.70;99.90
39997;DHT22;25688;52.338;21.072;2024-03-06T15:44:52;5.70;99.90
39997;DHT22;25688;52.338;21.072;2024-03-06T15:47:19;5.60;99.90
39997;DHT22;25688;52.338;21.072;2024-03-06T15:49:46;5.50;99.90
39997;DHT22;25688;52.338;21.072;2024-03-06T15:52:12;5.40;99.90
39997;DHT22;25688;52.338;21.072;2024-03-06T15:54:41;5.40;99.90
39997;DHT22;25688;52.338;21.072;2024-03-06T15:57:08;5.40;99.90
39997;DHT22;25688;52.338;21.072;2024-03-06T15:59:37;5.30;99.90
39997;DHT22;25688;52.338;21.072;2024-03-06T16:02:05;5.40;99.90
39997;DHT22;25688;52.338;21.072;2024-03-06T16:04:37;5.30;99.90
39997;DHT22;25688;52.338;21.072;2024-03-06T16:07:03;5.30;99.90
39997;DHT22;25688;52.338;21.072;2024-03-06T16:09:28;5.30;99.90
39997;DHT22;25688;52.338;21.072;2024-03-06T16:11:54;5.30;99.90
39997;DHT22;25688;52.338;21.072;2024-03-06T16:14:20;5.30;99.90
39997;DHT22;25688;52.338;21.072;2024-03-06T16:17:01;5.30;99.90
39997;DHT22;25688;52.338;21.072;2024-03-06T16:19:35;5.20;99.90
39997;DHT22;25688;52.338;21.072;2024-03-06T16:22:01;5.20;99.90
39997;DHT22;25688;52.338;21.072;2024-03-06T16:24:39;5.20;99.90
39997;DHT22;25688;52.338;21.072;2024-03-06T16:27:36;5.10;99.90
39997;DHT22;25688;52.338;21.072;2024-03-06T16:30:02;5.10;99.90
39997;DHT22;25688;52.338;21.072;2024-03-06T16:32:27;5.00;99.90
39997;DHT22;25688;52.338;21.072;2024-03-06T16:34:53;5.00;99.90
39997;DHT22;25688;52.338;21.072;2024-03-06T16:37:19;4.90;99.90
39997;DHT22;25688;52.338;21.072;2024-03-06T16:39:45;4.90;99.90
39997;DHT22;25688;52.338;21.072;2024-03-06T16:42:13;4.80;99.90
39997;DHT22;25688;52.338;21.072;2024-03-06T16:44:40;4.90;99.90
39997;DHT22;25688;52.338;21.072;2024-03-06T16:47:06;4.80;99.90
39997;DHT22;25688;52.338;21.072;2024-03-06T16:49:32;4.70;99.90
39997;DHT22;25688;52.338;21.072;2024-03-06T16:52:08;4.70;99.90
39997;DHT22;25688;52.338;21.072;2024-03-06T16:54:47;4.60;99.90
39997;DHT22;25688;52.338;21.072;2024-03-06T16:57:13;4.50;99.90
39997;DHT22;25688;52.338;21.072;2024-03-06T16:59:39;4.50;99.90